Choupique, Louisiana
Current Conditions -  °F | °C
As of 1:35 AM on Sunday 23 Nov 2014 (Local Time) from KOPL Reporting Station
Haze Haze  
Wind Chill: 63°   Ceiling: 500
Heat Index: 63°   Visibility: 5mi
Dew Point: 62°   Wind: 10mph
Humidity: 97%   Direction: 110°ESE
Pressure: 29.76"   Gusts: 17mph
Location:  30.9227°N, 91.987°W
Report Text: KOPL 230735Z AUTO 11009G15KT 5SM BR OVC005 17/17 A2976 RMK AO2 LTG DSNT S AND SW T01730168
Loading
Personal Weather Stations






























Interactive Weather Map New forecast layout! Learn more

10-Day Weather Forecast

Advertisements
Track Severe Weather on mobile